Terminal Aerodrome Forecast
Issued by NWS

Home | Current Version | Previous Version | Text Only | Print | Product List | Glossary On
Versions: 1 2 3 4 5 6 7 8 9 10 11 12
125
FTUS42 KTAE 131120
TAFABY
TAF
KABY 131120Z 1312/1412 30005KT P6SM SKC
     FM131800 22008KT P6SM FEW250=

USA.gov is the U.S. government's official web portal to all federal, state and local government web resources and services.